createdAt,value
2018-06-08T00:00:23.872Z,21.10
2018-06-08T00:02:52.030Z,21.10
2018-06-08T00:05:20.221Z,21.10
2018-06-08T00:07:48.395Z,21.10
2018-06-08T00:10:16.548Z,21.10
2018-06-08T00:12:44.736Z,21.10
2018-06-08T00:15:12.950Z,21.10
2018-06-08T00:17:41.153Z,21.10
2018-06-08T00:20:09.316Z,21.10
2018-06-08T00:22:37.532Z,21.10
2018-06-08T00:25:05.848Z,21.10
2018-06-08T00:27:34.068Z,21.10
2018-06-08T00:30:02.266Z,21.10
2018-06-08T00:32:30.492Z,21.10
2018-06-08T00:34:58.667Z,21.00
2018-06-08T00:37:26.869Z,21.00
2018-06-08T00:39:55.056Z,21.00
2018-06-08T00:42:23.233Z,21.00
2018-06-08T00:44:51.489Z,20.90
2018-06-08T00:47:19.664Z,20.90
2018-06-08T00:49:47.845Z,20.90
2018-06-08T00:52:16.025Z,20.90
2018-06-08T00:54:44.200Z,20.90
2018-06-08T00:57:12.365Z,20.90
2018-06-08T00:59:40.561Z,20.90
2018-06-08T01:02:08.750Z,20.90
2018-06-08T01:04:37.015Z,20.90
2018-06-08T01:07:05.196Z,20.90
2018-06-08T01:09:33.396Z,20.90
2018-06-08T01:12:01.563Z,20.90
2018-06-08T01:14:32.021Z,20.90
2018-06-08T01:17:00.472Z,21.00
2018-06-08T01:19:31.443Z,20.90
2018-06-08T01:21:59.629Z,20.90
2018-06-08T01:24:28.070Z,20.90
2018-06-08T01:26:56.304Z,20.90
2018-06-08T01:29:24.478Z,20.90
2018-06-08T01:31:52.701Z,20.90
2018-06-08T01:34:20.876Z,21.00
2018-06-08T01:36:49.104Z,21.00
2018-06-08T01:39:17.305Z,21.00
2018-06-08T01:41:45.488Z,21.00
2018-06-08T01:44:13.690Z,21.00
2018-06-08T01:46:41.891Z,21.00
2018-06-08T01:49:10.100Z,21.00
2018-06-08T01:51:38.301Z,21.00
2018-06-08T01:54:06.482Z,21.00
2018-06-08T01:56:34.675Z,20.90
2018-06-08T01:59:02.865Z,20.90
2018-06-08T02:01:31.039Z,20.90
2018-06-08T02:03:59.225Z,20.90
2018-06-08T02:06:27.401Z,20.90
2018-06-08T02:08:55.775Z,20.90
2018-06-08T02:11:23.970Z,20.90
2018-06-08T02:13:52.163Z,20.90
2018-06-08T02:16:20.335Z,20.90
2018-06-08T02:18:48.521Z,20.90
2018-06-08T02:21:16.713Z,20.90
2018-06-08T02:23:44.935Z,20.90
2018-06-08T02:26:13.134Z,20.90
2018-06-08T02:28:41.644Z,20.90
2018-06-08T02:31:09.805Z,20.80
2018-06-08T02:36:06.012Z,20.80
2018-06-08T02:38:34.204Z,20.80
2018-06-08T02:41:02.345Z,20.80
2018-06-08T02:43:30.522Z,20.80
2018-06-08T02:45:58.693Z,20.70
2018-06-08T02:48:26.887Z,20.70
2018-06-08T02:50:55.076Z,20.80
2018-06-08T02:53:23.266Z,20.80
2018-06-08T02:55:51.449Z,20.70
2018-06-08T02:58:19.673Z,20.70
2018-06-08T03:00:47.869Z,20.70
2018-06-08T03:03:16.044Z,20.70
2018-06-08T03:05:44.249Z,20.80
2018-06-08T03:08:12.422Z,20.80
2018-06-08T03:10:40.646Z,20.80
2018-06-08T03:13:08.825Z,20.80
2018-06-08T03:15:37.035Z,20.80
2018-06-08T03:18:05.269Z,20.80
2018-06-08T03:20:33.538Z,20.80
2018-06-08T03:23:01.714Z,20.80
2018-06-08T03:25:29.968Z,20.90
2018-06-08T03:27:58.140Z,20.90
2018-06-08T03:30:26.347Z,20.90
2018-06-08T03:32:54.560Z,20.90
2018-06-08T03:35:22.824Z,20.90
2018-06-08T03:37:51.023Z,20.90
2018-06-08T03:40:19.224Z,21.00
2018-06-08T03:42:47.400Z,21.00
2018-06-08T03:45:15.627Z,21.00
2018-06-08T03:47:43.780Z,21.00
2018-06-08T03:50:11.978Z,21.00
2018-06-08T03:52:40.156Z,21.00
2018-06-08T03:55:08.348Z,21.00
2018-06-08T03:57:36.560Z,21.00
2018-06-08T04:00:04.769Z,21.00
2018-06-08T04:02:32.962Z,21.10
2018-06-08T04:05:01.160Z,21.10
2018-06-08T04:07:30.106Z,21.10
2018-06-08T04:12:26.292Z,21.10
2018-06-08T04:14:54.493Z,21.10
2018-06-08T04:17:22.701Z,21.10
2018-06-08T04:19:50.896Z,21.10
2018-06-08T04:22:19.126Z,21.10
2018-06-08T04:24:47.329Z,21.10
2018-06-08T04:27:15.537Z,21.10
2018-06-08T04:29:43.712Z,21.10
2018-06-08T04:32:11.912Z,21.10
2018-06-08T04:34:40.132Z,21.10
2018-06-08T04:37:08.325Z,21.10
2018-06-08T04:39:36.513Z,21.20
2018-06-08T04:42:04.731Z,21.20
2018-06-08T04:44:32.920Z,21.20
2018-06-08T04:47:01.118Z,21.30
2018-06-08T04:49:29.313Z,21.30
2018-06-08T04:51:57.827Z,21.30
2018-06-08T04:54:25.994Z,21.30
2018-06-08T04:56:54.237Z,21.30
2018-06-08T04:59:22.707Z,21.30
2018-06-08T05:01:50.911Z,21.30
2018-06-08T05:04:19.106Z,21.30
2018-06-08T05:06:47.285Z,21.40
2018-06-08T05:09:15.485Z,21.40
2018-06-08T05:11:43.697Z,21.40
2018-06-08T05:14:11.929Z,21.50
2018-06-08T05:16:40.128Z,21.50
2018-06-08T05:19:08.359Z,21.50
2018-06-08T05:21:36.556Z,21.50
2018-06-08T05:24:04.859Z,21.60
2018-06-08T05:26:33.648Z,21.60
2018-06-08T05:29:01.857Z,21.60
2018-06-08T05:31:30.353Z,21.60
2018-06-08T05:33:59.262Z,21.70
2018-06-08T05:36:27.426Z,21.70
2018-06-08T05:38:55.669Z,21.70
2018-06-08T05:41:23.892Z,21.80
2018-06-08T05:43:52.019Z,21.90
2018-06-08T05:46:21.941Z,21.90
2018-06-08T05:48:50.297Z,22.00
2018-06-08T05:51:18.449Z,22.10
2018-06-08T05:53:46.615Z,22.10
2018-06-08T05:56:14.745Z,22.10
2018-06-08T05:58:42.909Z,22.10
2018-06-08T06:01:11.084Z,22.20
2018-06-08T06:03:39.502Z,22.20
2018-06-08T06:06:07.666Z,22.30
2018-06-08T06:08:35.861Z,22.40
2018-06-08T06:11:04.058Z,22.40
2018-06-08T06:13:32.251Z,22.50
2018-06-08T06:16:00.405Z,22.40
2018-06-08T06:18:28.929Z,22.40
2018-06-08T06:20:57.100Z,22.40
2018-06-08T06:23:25.264Z,22.50
2018-06-08T06:25:53.438Z,22.60
2018-06-08T06:28:21.617Z,22.60
2018-06-08T06:30:49.793Z,22.60
2018-06-08T06:33:17.983Z,22.70
2018-06-08T06:35:46.197Z,22.80
2018-06-08T06:38:14.416Z,22.80
2018-06-08T06:40:42.613Z,22.90
2018-06-08T06:43:10.812Z,22.90
2018-06-08T06:45:38.969Z,23.00
2018-06-08T06:50:35.093Z,23.10
2018-06-08T06:53:03.282Z,23.10
2018-06-08T06:55:31.664Z,23.10
2018-06-08T06:57:59.836Z,23.20
2018-06-08T07:00:28.002Z,23.20
2018-06-08T07:02:56.197Z,23.30
2018-06-08T07:05:24.380Z,23.40
2018-06-08T07:07:52.546Z,23.40
2018-06-08T07:10:20.780Z,23.50
2018-06-08T07:12:48.993Z,23.60
2018-06-08T07:15:17.141Z,23.50
2018-06-08T07:17:45.349Z,23.60
2018-06-08T07:20:13.546Z,23.60
2018-06-08T07:22:41.705Z,23.70
2018-06-08T07:25:10.065Z,23.90
2018-06-08T07:27:38.272Z,24.00
2018-06-08T07:30:06.451Z,24.10
2018-06-08T07:32:34.647Z,24.10
2018-06-08T07:35:02.807Z,24.20
2018-06-08T07:37:30.956Z,24.30
2018-06-08T07:39:59.178Z,24.50
2018-06-08T07:42:27.334Z,24.60
2018-06-08T07:44:55.505Z,24.70
2018-06-08T07:47:23.893Z,24.80
2018-06-08T07:49:52.063Z,24.80
2018-06-08T07:52:20.236Z,24.90
2018-06-08T07:54:48.428Z,24.90
2018-06-08T07:57:16.592Z,24.90
2018-06-08T07:59:44.784Z,24.90
2018-06-08T08:02:13.055Z,24.90
2018-06-08T08:04:41.434Z,25.10
2018-06-08T08:07:09.604Z,25.20
2018-06-08T08:19:59.422Z,25.20
2018-06-08T08:22:27.570Z,25.30
2018-06-08T08:24:55.764Z,25.40
2018-06-08T08:27:23.969Z,25.50
2018-06-08T08:29:52.407Z,25.60
2018-06-08T08:32:20.608Z,25.70
2018-06-08T08:34:48.802Z,25.70
2018-06-08T08:37:17.008Z,25.80
2018-06-08T08:39:45.287Z,25.70
2018-06-08T08:42:13.478Z,25.70
2018-06-08T08:44:41.711Z,25.70
2018-06-08T08:47:09.890Z,25.70
2018-06-08T08:49:38.093Z,25.70
2018-06-08T08:52:06.314Z,25.70
2018-06-08T08:54:34.708Z,25.70
2018-06-08T08:57:03.080Z,25.90
2018-06-08T08:59:31.217Z,26.00
2018-06-08T09:01:59.397Z,26.10
2018-06-08T09:04:27.562Z,26.20
2018-06-08T09:06:55.725Z,26.00
2018-06-08T09:09:23.905Z,25.90
2018-06-08T09:11:52.097Z,25.60
2018-06-08T09:14:20.786Z,25.50
2018-06-08T09:16:48.976Z,25.30
2018-06-08T09:19:17.507Z,25.10
2018-06-08T09:21:45.693Z,24.70
2018-06-08T09:24:13.885Z,24.50
2018-06-08T09:26:42.086Z,24.30
2018-06-08T09:29:10.270Z,24.00
2018-06-08T09:31:38.872Z,23.80
2018-06-08T09:34:07.056Z,23.70
2018-06-08T09:36:35.241Z,23.50
2018-06-08T09:39:03.813Z,23.30
2018-06-08T09:41:32.006Z,23.10
2018-06-08T09:44:00.208Z,22.90
2018-06-08T09:46:28.436Z,22.80
2018-06-08T09:48:56.590Z,22.70
2018-06-08T09:51:24.769Z,22.60
2018-06-08T09:53:52.917Z,22.60
2018-06-08T09:56:21.100Z,22.50
2018-06-08T09:58:49.253Z,22.50
2018-06-08T10:01:17.409Z,22.40
2018-06-08T10:03:45.614Z,22.30
2018-06-08T10:06:13.760Z,22.20
2018-06-08T10:08:41.941Z,22.10
2018-06-08T10:11:10.137Z,22.10
2018-06-08T10:13:38.286Z,21.90
2018-06-08T10:16:06.476Z,21.90
2018-06-08T10:18:34.676Z,21.80
2018-06-08T10:21:02.836Z,21.70
2018-06-08T10:23:31.020Z,21.80
2018-06-08T10:25:59.542Z,21.70
2018-06-08T10:28:27.755Z,21.80
2018-06-08T10:30:55.951Z,21.80
2018-06-08T10:33:24.165Z,21.90
2018-06-08T10:35:52.326Z,22.10
2018-06-08T10:38:20.521Z,22.20
2018-06-08T10:40:48.719Z,22.20
2018-06-08T10:43:16.860Z,22.30
2018-06-08T10:45:45.037Z,22.40
2018-06-08T10:48:13.249Z,22.40
2018-06-08T10:50:41.451Z,22.40
2018-06-08T10:53:09.607Z,22.40
2018-06-08T10:55:37.796Z,22.50
2018-06-08T10:58:05.963Z,22.50
2018-06-08T11:00:34.149Z,22.50
2018-06-08T11:03:02.365Z,22.70
2018-06-08T11:05:30.578Z,22.70
2018-06-08T11:10:26.685Z,23.00
2018-06-08T11:12:54.897Z,23.10
2018-06-08T11:15:23.123Z,23.10
2018-06-08T11:17:51.331Z,23.20
2018-06-08T11:20:19.501Z,23.20
2018-06-08T11:22:47.666Z,23.20
2018-06-08T11:25:15.891Z,23.20
2018-06-08T11:27:44.036Z,23.30
2018-06-08T11:30:12.205Z,23.30
2018-06-08T11:32:40.397Z,23.40
2018-06-08T11:35:08.610Z,23.40
2018-06-08T11:37:36.884Z,23.50
2018-06-08T11:40:05.145Z,23.50
2018-06-08T11:42:33.392Z,23.40
2018-06-08T11:47:29.561Z,23.50
2018-06-08T11:49:57.779Z,23.60
2018-06-08T11:52:26.003Z,23.60
2018-06-08T11:54:54.202Z,23.60
2018-06-08T11:57:22.442Z,23.70
2018-06-08T11:59:50.650Z,23.70
2018-06-08T12:02:18.867Z,23.90
2018-06-08T12:04:47.053Z,24.00
2018-06-08T12:07:15.286Z,24.10
2018-06-08T12:09:43.788Z,24.30
2018-06-08T12:12:11.980Z,24.30
2018-06-08T12:14:40.178Z,24.50
2018-06-08T12:17:08.420Z,24.60
2018-06-08T12:19:36.869Z,24.80
2018-06-08T12:22:05.059Z,24.80
2018-06-08T12:24:34.057Z,24.90
2018-06-08T12:27:02.359Z,25.10
2018-06-08T12:29:31.149Z,25.10
2018-06-08T12:31:59.308Z,25.10
2018-06-08T12:34:28.067Z,25.20
2018-06-08T12:36:56.640Z,25.00
2018-06-08T12:39:24.855Z,25.00
2018-06-08T12:41:52.988Z,25.00
2018-06-08T12:44:21.116Z,24.90
2018-06-08T12:46:49.266Z,24.80
2018-06-08T12:49:17.417Z,24.60
2018-06-08T12:51:45.592Z,24.60
2018-06-08T12:54:13.744Z,24.50
2018-06-08T12:56:41.877Z,24.40
2018-06-08T12:59:10.040Z,24.50
2018-06-08T13:01:39.387Z,24.50
2018-06-08T13:04:07.529Z,24.50
2018-06-08T13:06:35.651Z,24.60
2018-06-08T13:09:05.498Z,24.70
2018-06-08T13:11:33.665Z,24.80
2018-06-08T13:14:02.026Z,24.80
2018-06-08T13:18:58.098Z,24.80
2018-06-08T13:21:30.089Z,24.80
2018-06-08T13:23:58.335Z,24.70
2018-06-08T13:26:26.797Z,24.60
2018-06-08T13:28:54.986Z,24.60
2018-06-08T13:31:23.180Z,24.60
2018-06-08T13:33:51.380Z,24.60
2018-06-08T13:36:19.576Z,24.50
2018-06-08T13:38:47.836Z,24.50
2018-06-08T13:41:16.703Z,24.50
2018-06-08T13:43:44.900Z,24.50
2018-06-08T13:46:52.907Z,24.60
2018-06-08T13:49:21.167Z,24.60
2018-06-08T13:51:51.164Z,24.60
2018-06-08T13:54:19.369Z,24.60
2018-06-08T13:56:47.686Z,24.50
2018-06-08T13:59:16.849Z,24.60
2018-06-08T14:01:45.066Z,24.60
2018-06-08T14:04:13.300Z,24.60
2018-06-08T14:06:42.229Z,24.60
2018-06-08T14:09:11.978Z,24.70
2018-06-08T14:11:40.164Z,24.90
2018-06-08T14:14:08.343Z,25.00
2018-06-08T14:16:36.558Z,25.20
2018-06-08T14:19:04.917Z,25.30
2018-06-08T14:21:33.113Z,25.40
2018-06-08T14:24:01.653Z,25.50
2018-06-08T14:26:29.893Z,25.70
2018-06-08T14:28:58.111Z,25.80
2018-06-08T14:31:26.369Z,26.00
2018-06-08T14:33:54.571Z,26.10
2018-06-08T14:36:23.074Z,26.00
2018-06-08T14:38:51.290Z,26.10
2018-06-08T14:41:19.517Z,26.20
2018-06-08T14:43:47.731Z,26.20
2018-06-08T14:46:16.388Z,26.30
2018-06-08T14:48:44.892Z,26.20
2018-06-08T14:51:13.081Z,26.30
2018-06-08T14:53:41.375Z,26.50
2018-06-08T14:56:09.563Z,26.60
2018-06-08T14:58:37.712Z,26.80
2018-06-08T15:01:06.325Z,26.70
2018-06-08T15:03:34.490Z,26.90
2018-06-08T15:08:30.580Z,26.90
2018-06-08T15:10:58.741Z,27.00
2018-06-08T15:13:26.898Z,27.10
2018-06-08T15:15:55.254Z,27.30
2018-06-08T15:18:23.445Z,27.50
2018-06-08T15:20:51.664Z,27.50
2018-06-08T15:23:20.160Z,27.60
2018-06-08T15:25:48.349Z,27.70
2018-06-08T15:28:16.486Z,27.70
2018-06-08T15:30:44.670Z,27.70
2018-06-08T15:33:12.859Z,27.80
2018-06-08T15:35:41.017Z,27.80
2018-06-08T15:38:09.187Z,27.90
2018-06-08T15:43:05.317Z,27.90
2018-06-08T15:45:33.498Z,27.70
2018-06-08T15:48:01.675Z,27.60
2018-06-08T15:50:29.833Z,27.50
2018-06-08T15:52:58.042Z,27.50
2018-06-08T15:55:26.213Z,27.60
2018-06-08T15:57:54.425Z,27.60
2018-06-08T16:00:22.738Z,27.60
2018-06-08T16:02:50.887Z,27.60
2018-06-08T16:05:19.038Z,27.60
2018-06-08T16:07:47.236Z,27.50
2018-06-08T16:10:15.432Z,27.50
2018-06-08T16:12:43.607Z,27.50
2018-06-08T16:15:11.784Z,27.50
2018-06-08T16:17:39.949Z,27.50
2018-06-08T16:20:08.122Z,27.40
2018-06-08T16:22:36.382Z,27.40
2018-06-08T16:25:04.487Z,27.40
2018-06-08T16:27:32.648Z,27.30
2018-06-08T16:30:00.853Z,27.10
2018-06-08T16:32:29.024Z,27.10
2018-06-08T16:34:57.252Z,27.10
2018-06-08T16:37:25.422Z,27.00
2018-06-08T16:58:05.089Z,26.40
2018-06-08T17:00:33.295Z,26.50
2018-06-08T17:03:01.507Z,26.60
2018-06-08T17:07:58.048Z,26.60
2018-06-08T17:10:26.356Z,26.60
2018-06-08T17:12:54.527Z,26.60
2018-06-08T17:15:22.741Z,26.60
2018-06-08T17:17:51.200Z,26.60
2018-06-08T17:22:47.280Z,26.50
2018-06-08T17:25:15.525Z,26.40
2018-06-08T17:27:43.858Z,26.30
2018-06-08T17:30:12.071Z,26.20
2018-06-08T17:32:40.262Z,26.10
2018-06-08T17:35:08.516Z,26.00
2018-06-08T17:37:36.681Z,25.90
2018-06-08T17:40:04.992Z,25.90
2018-06-08T17:42:33.188Z,25.90
2018-06-08T17:45:01.380Z,25.80
2018-06-08T17:47:29.586Z,25.70
2018-06-08T17:49:57.747Z,25.60
2018-06-08T17:52:25.963Z,25.60
2018-06-08T17:54:54.142Z,25.50
2018-06-08T17:57:22.321Z,25.40
2018-06-08T17:59:50.479Z,25.40
2018-06-08T18:02:18.668Z,25.30
2018-06-08T18:04:46.853Z,25.20
2018-06-08T18:07:15.025Z,25.10
2018-06-08T18:09:43.280Z,25.00
2018-06-08T18:12:11.454Z,25.00
2018-06-08T18:14:39.619Z,24.90
2018-06-08T18:17:07.832Z,24.90
2018-06-08T18:19:36.010Z,24.90
2018-06-08T18:22:04.228Z,24.90
2018-06-08T18:24:32.512Z,24.80
2018-06-08T18:27:00.693Z,24.80
2018-06-08T18:29:28.882Z,24.80
2018-06-08T18:31:57.186Z,24.70
2018-06-08T18:34:25.404Z,24.70
2018-06-08T18:36:53.642Z,24.60
2018-06-08T18:39:21.853Z,24.50
2018-06-08T18:41:50.030Z,24.50
2018-06-08T18:44:18.466Z,24.50
2018-06-08T18:46:46.656Z,24.40
2018-06-08T18:49:14.877Z,24.40
2018-06-08T18:51:43.086Z,24.40
2018-06-08T18:54:11.277Z,24.30
2018-06-08T18:56:39.496Z,24.30
2018-06-08T18:59:07.700Z,24.30
2018-06-08T19:01:35.866Z,24.20
2018-06-08T19:04:04.358Z,24.20
2018-06-08T19:06:32.570Z,24.10
2018-06-08T19:09:00.746Z,24.00
2018-06-08T19:11:28.944Z,24.00
2018-06-08T19:16:25.109Z,23.90
2018-06-08T19:18:53.320Z,23.90
2018-06-08T19:21:21.536Z,23.80
2018-06-08T19:23:49.765Z,23.70
2018-06-08T19:26:17.977Z,23.70
2018-06-08T19:28:46.212Z,23.70
2018-06-08T19:31:14.520Z,23.60
2018-06-08T19:33:42.676Z,23.60
2018-06-08T19:36:10.876Z,23.60
2018-06-08T19:38:39.059Z,23.60
2018-06-08T19:41:07.224Z,23.40
2018-06-08T19:43:35.422Z,23.40
2018-06-08T19:46:03.864Z,23.40
2018-06-08T19:48:32.048Z,23.40
2018-06-08T19:51:00.276Z,23.30
2018-06-08T19:53:28.488Z,23.30
2018-06-08T19:55:56.704Z,23.30
2018-06-08T19:58:24.956Z,23.30
2018-06-08T20:00:53.111Z,23.20
2018-06-08T20:03:21.606Z,23.20
2018-06-08T20:05:49.818Z,23.20
2018-06-08T20:08:18.140Z,23.10
2018-06-08T20:10:46.826Z,23.10
2018-06-08T20:13:15.088Z,23.10
2018-06-08T20:15:43.283Z,23.00
2018-06-08T20:18:11.479Z,23.00
2018-06-08T20:20:39.699Z,22.90
2018-06-08T20:23:07.917Z,22.90
2018-06-08T20:25:36.562Z,22.80
2018-06-08T20:28:04.727Z,22.80
2018-06-08T20:30:32.921Z,22.70
2018-06-08T20:33:01.101Z,22.70
2018-06-08T20:35:29.274Z,22.60
2018-06-08T20:37:57.493Z,22.60
2018-06-08T20:40:25.721Z,22.60
2018-06-08T20:42:53.879Z,22.60
2018-06-08T20:45:22.225Z,22.50
2018-06-08T20:47:50.440Z,22.50
2018-06-08T20:50:18.693Z,22.40
2018-06-08T20:52:46.936Z,22.40
2018-06-08T20:55:15.386Z,22.40
2018-06-08T20:57:55.052Z,22.30
2018-06-08T21:00:23.477Z,22.30
2018-06-08T21:02:51.689Z,22.20
2018-06-08T21:05:20.129Z,22.20
2018-06-08T21:07:48.445Z,22.10
2018-06-08T21:10:16.637Z,22.10
2018-06-08T21:12:44.871Z,22.00
2018-06-08T21:15:13.500Z,21.90
2018-06-08T21:17:41.659Z,21.90
2018-06-08T21:20:10.243Z,21.90
2018-06-08T21:22:38.435Z,21.90
2018-06-08T21:25:06.650Z,21.90
2018-06-08T21:27:35.187Z,21.90
2018-06-08T21:30:03.372Z,22.00
2018-06-08T21:32:31.589Z,22.00
2018-06-08T21:34:59.777Z,22.00
2018-06-08T21:37:27.978Z,21.90
2018-06-08T21:39:56.157Z,21.90
2018-06-08T21:42:24.639Z,21.90
2018-06-08T21:44:52.855Z,21.90
2018-06-08T21:47:21.441Z,21.90
2018-06-08T21:49:49.659Z,21.90
2018-06-08T21:52:17.873Z,21.90
2018-06-08T21:54:46.316Z,21.80
2018-06-08T21:57:14.864Z,21.80
2018-06-08T21:59:43.044Z,21.80
2018-06-08T22:02:11.225Z,21.80
2018-06-08T22:04:39.394Z,21.80
2018-06-08T22:07:07.633Z,21.70
2018-06-08T22:09:36.120Z,21.80
2018-06-08T22:12:04.331Z,21.80
2018-06-08T22:14:32.520Z,21.80
2018-06-08T22:17:00.688Z,21.80
2018-06-08T22:19:29.165Z,21.80
2018-06-08T22:21:57.349Z,21.70
2018-06-08T22:24:25.556Z,21.70
2018-06-08T22:26:53.777Z,21.70
2018-06-08T22:29:21.998Z,21.70
2018-06-08T22:31:50.184Z,21.70
2018-06-08T22:34:18.373Z,21.70
2018-06-08T22:36:46.572Z,21.70
2018-06-08T22:39:14.753Z,21.70
2018-06-08T22:41:43.246Z,21.70
2018-06-08T22:44:11.441Z,21.60
2018-06-08T22:46:39.619Z,21.60
2018-06-08T22:49:07.790Z,21.60
2018-06-08T22:51:35.965Z,21.50
2018-06-08T22:54:04.150Z,21.50
2018-06-08T22:56:32.594Z,21.40
2018-06-08T22:59:00.782Z,21.50
2018-06-08T23:01:28.969Z,21.50
2018-06-08T23:03:57.241Z,21.40
2018-06-08T23:06:25.435Z,21.40
2018-06-08T23:08:53.592Z,21.40
2018-06-08T23:11:21.812Z,21.50
2018-06-08T23:13:50.304Z,21.40
2018-06-08T23:16:18.478Z,21.40
2018-06-08T23:18:46.703Z,21.30
2018-06-08T23:21:14.899Z,21.30
2018-06-08T23:23:43.064Z,21.30
2018-06-08T23:28:46.234Z,21.20
2018-06-08T23:31:14.406Z,21.20
2018-06-08T23:33:42.588Z,21.30
2018-06-08T23:36:10.787Z,21.30
2018-06-08T23:38:38.985Z,21.20
2018-06-08T23:41:07.170Z,21.20
2018-06-08T23:43:35.362Z,21.20
2018-06-08T23:46:03.593Z,21.20
2018-06-08T23:48:31.797Z,21.10
2018-06-08T23:51:00.006Z,21.10
2018-06-08T23:53:28.368Z,21.10
2018-06-08T23:55:56.560Z,21.10
2018-06-08T23:58:24.753Z,21.10
